Terminal Aerodrome Forecast
Issued by NWS

Home | Current Version | Previous Version | Text Only | Print | Product List | Glossary On
Versions: 1 2 3 4 5 6 7 8 9 10 11 12 13 14 15 16 17 18 19 20 21
000
FTUS43 KDLH 252000 AAA
TAFBRD
TAF AMD
KBRD 252012Z 2520/2618 24005KT P6SM BKN025 BKN040
     FM260000 23005KT P6SM SCT015 SCT100
     FM260300 25006KT P6SM BKN025
     FM260900 VRB03KT P6SM SKC
     FM261700 24011G16KT P6SM FEW080=

USA.gov is the U.S. government's official web portal to all federal, state and local government web resources and services.